sensor_id;sensor_type;location;lat;lon;timestamp;P1;durP1;ratioP1;P2;durP2;ratioP2
75818;SDS011;64453;51.944;9.796;2022-10-26T00:01:29;2.23;;;2.13;;
75818;SDS011;64453;51.944;9.796;2022-10-26T00:03:56;2.20;;;2.10;;
75818;SDS011;64453;51.944;9.796;2022-10-26T00:06:23;2.10;;;2.00;;
75818;SDS011;64453;51.944;9.796;2022-10-26T00:08:51;3.37;;;3.17;;
75818;SDS011;64453;51.944;9.796;2022-10-26T00:11:20;4.23;;;2.40;;
75818;SDS011;64453;51.944;9.796;2022-10-26T00:13:47;3.60;;;2.60;;
75818;SDS011;64453;51.944;9.796;2022-10-26T00:16:16;2.37;;;2.17;;
75818;SDS011;64453;51.944;9.796;2022-10-26T00:18:46;2.50;;;1.87;;
75818;SDS011;64453;51.944;9.796;2022-10-26T00:21:13;2.53;;;2.10;;
75818;SDS011;64453;51.944;9.796;2022-10-26T00:23:40;3.60;;;2.30;;
75818;SDS011;64453;51.944;9.796;2022-10-26T00:26:07;2.23;;;2.10;;
75818;SDS011;64453;51.944;9.796;2022-10-26T00:28:35;2.33;;;2.23;;
75818;SDS011;64453;51.944;9.796;2022-10-26T00:31:02;2.03;;;1.93;;
75818;SDS011;64453;51.944;9.796;2022-10-26T00:33:30;2.77;;;2.30;;
75818;SDS011;64453;51.944;9.796;2022-10-26T00:35:59;2.20;;;2.10;;
75818;SDS011;64453;51.944;9.796;2022-10-26T00:38:26;1.70;;;1.60;;
75818;SDS011;64453;51.944;9.796;2022-10-26T00:40:53;2.20;;;2.10;;
75818;SDS011;64453;51.944;9.796;2022-10-26T00:43:36;1.70;;;1.60;;
75818;SDS011;64453;51.944;9.796;2022-10-26T00:46:07;2.43;;;1.73;;
75818;SDS011;64453;51.944;9.796;2022-10-26T00:48:40;2.60;;;2.40;;
75818;SDS011;64453;51.944;9.796;2022-10-26T00:51:11;2.13;;;1.90;;
75818;SDS011;64453;51.944;9.796;2022-10-26T00:53:43;4.93;;;2.30;;
75818;SDS011;64453;51.944;9.796;2022-10-26T00:56:10;5.77;;;2.67;;
75818;SDS011;64453;51.944;9.796;2022-10-26T00:58:37;6.07;;;3.30;;
75818;SDS011;64453;51.944;9.796;2022-10-26T01:01:05;6.17;;;2.97;;
75818;SDS011;64453;51.944;9.796;2022-10-26T01:03:31;3.27;;;3.07;;
75818;SDS011;64453;51.944;9.796;2022-10-26T01:05:59;8.33;;;3.50;;
75818;SDS011;64453;51.944;9.796;2022-10-26T01:08:29;3.37;;;3.07;;
75818;SDS011;64453;51.944;9.796;2022-10-26T01:10:57;6.47;;;3.40;;
75818;SDS011;64453;51.944;9.796;2022-10-26T01:13:25;6.50;;;3.30;;
75818;SDS011;64453;51.944;9.796;2022-10-26T01:15:55;3.40;;;3.20;;
75818;SDS011;64453;51.944;9.796;2022-10-26T01:18:34;3.10;;;2.90;;
75818;SDS011;64453;51.944;9.796;2022-10-26T01:21:29;5.93;;;3.13;;
75818;SDS011;64453;51.944;9.796;2022-10-26T01:24:13;2.80;;;2.60;;
75818;SDS011;64453;51.944;9.796;2022-10-26T01:27:04;3.10;;;2.90;;
75818;SDS011;64453;51.944;9.796;2022-10-26T01:29:48;3.50;;;3.30;;
75818;SDS011;64453;51.944;9.796;2022-10-26T01:32:38;3.23;;;2.70;;
75818;SDS011;64453;51.944;9.796;2022-10-26T01:35:13;3.27;;;2.97;;
75818;SDS011;64453;51.944;9.796;2022-10-26T01:37:45;4.13;;;2.70;;
75818;SDS011;64453;51.944;9.796;2022-10-26T01:40:18;4.80;;;2.70;;
75818;SDS011;64453;51.944;9.796;2022-10-26T01:42:49;6.00;;;2.93;;
75818;SDS011;64453;51.944;9.796;2022-10-26T01:45:18;3.77;;;3.23;;
75818;SDS011;64453;51.944;9.796;2022-10-26T01:47:47;4.20;;;3.40;;
75818;SDS011;64453;51.944;9.796;2022-10-26T01:50:15;5.20;;;3.37;;
75818;SDS011;64453;51.944;9.796;2022-10-26T01:52:47;5.47;;;3.47;;
75818;SDS011;64453;51.944;9.796;2022-10-26T01:58:09;3.90;;;3.53;;
75818;SDS011;64453;51.944;9.796;2022-10-26T02:00:47;5.70;;;2.53;;
75818;SDS011;64453;51.944;9.796;2022-10-26T02:03:24;18.40;;;3.50;;
75818;SDS011;64453;51.944;9.796;2022-10-26T02:06:01;3.70;;;3.23;;
75818;SDS011;64453;51.944;9.796;2022-10-26T02:08:43;5.60;;;3.57;;
75818;SDS011;64453;51.944;9.796;2022-10-26T02:11:30;7.50;;;3.57;;
75818;SDS011;64453;51.944;9.796;2022-10-26T02:14:05;5.37;;;3.03;;
75818;SDS011;64453;51.944;9.796;2022-10-26T02:16:39;3.63;;;3.33;;
75818;SDS011;64453;51.944;9.796;2022-10-26T02:19:17;6.23;;;3.30;;
75818;SDS011;64453;51.944;9.796;2022-10-26T02:21:53;2.70;;;2.50;;
75818;SDS011;64453;51.944;9.796;2022-10-26T02:24:23;4.03;;;2.50;;
75818;SDS011;64453;51.944;9.796;2022-10-26T02:26:51;5.00;;;2.53;;
75818;SDS011;64453;51.944;9.796;2022-10-26T02:29:21;7.53;;;4.57;;
75818;SDS011;64453;51.944;9.796;2022-10-26T02:31:49;3.23;;;2.93;;
75818;SDS011;64453;51.944;9.796;2022-10-26T02:34:19;5.40;;;2.83;;
75818;SDS011;64453;51.944;9.796;2022-10-26T02:36:50;4.77;;;2.70;;
75818;SDS011;64453;51.944;9.796;2022-10-26T02:39:21;3.80;;;3.50;;
75818;SDS011;64453;51.944;9.796;2022-10-26T02:41:49;5.93;;;3.53;;
75818;SDS011;64453;51.944;9.796;2022-10-26T02:44:19;2.80;;;2.60;;
75818;SDS011;64453;51.944;9.796;2022-10-26T02:46:48;3.43;;;3.00;;
75818;SDS011;64453;51.944;9.796;2022-10-26T02:49:17;2.80;;;2.60;;
75818;SDS011;64453;51.944;9.796;2022-10-26T02:51:47;4.80;;;2.40;;
75818;SDS011;64453;51.944;9.796;2022-10-26T02:54:18;3.30;;;3.00;;
75818;SDS011;64453;51.944;9.796;2022-10-26T02:56:53;3.07;;;2.87;;
75818;SDS011;64453;51.944;9.796;2022-10-26T02:59:25;4.50;;;3.40;;
75818;SDS011;64453;51.944;9.796;2022-10-26T03:01:56;3.07;;;2.60;;
75818;SDS011;64453;51.944;9.796;2022-10-26T03:04:28;3.43;;;3.10;;
75818;SDS011;64453;51.944;9.796;2022-10-26T03:06:55;4.13;;;2.70;;
75818;SDS011;64453;51.944;9.796;2022-10-26T03:09:22;8.60;;;3.80;;
75818;SDS011;64453;51.944;9.796;2022-10-26T03:11:49;3.10;;;2.90;;
75818;SDS011;64453;51.944;9.796;2022-10-26T03:14:16;6.63;;;3.60;;
75818;SDS011;64453;51.944;9.796;2022-10-26T03:16:42;5.37;;;3.00;;
75818;SDS011;64453;51.944;9.796;2022-10-26T03:19:12;8.33;;;3.27;;
75818;SDS011;64453;51.944;9.796;2022-10-26T03:21:40;4.40;;;3.13;;
75818;SDS011;64453;51.944;9.796;2022-10-26T03:24:08;3.63;;;3.33;;
75818;SDS011;64453;51.944;9.796;2022-10-26T03:26:34;3.70;;;3.40;;
75818;SDS011;64453;51.944;9.796;2022-10-26T03:29:01;4.67;;;3.23;;
75818;SDS011;64453;51.944;9.796;2022-10-26T03:31:28;4.33;;;3.27;;
75818;SDS011;64453;51.944;9.796;2022-10-26T03:33:55;3.77;;;3.47;;
75818;SDS011;64453;51.944;9.796;2022-10-26T03:36:22;3.80;;;3.27;;
75818;SDS011;64453;51.944;9.796;2022-10-26T03:38:50;2.90;;;2.70;;
75818;SDS011;64453;51.944;9.796;2022-10-26T03:41:17;2.97;;;2.77;;
75818;SDS011;64453;51.944;9.796;2022-10-26T03:43:43;2.90;;;2.80;;
75818;SDS011;64453;51.944;9.796;2022-10-26T03:46:10;7.33;;;3.53;;
75818;SDS011;64453;51.944;9.796;2022-10-26T03:48:37;3.17;;;2.97;;
75818;SDS011;64453;51.944;9.796;2022-10-26T03:51:04;4.53;;;2.50;;
75818;SDS011;64453;51.944;9.796;2022-10-26T03:53:31;3.47;;;3.13;;
75818;SDS011;64453;51.944;9.796;2022-10-26T03:55:59;4.67;;;3.60;;
75818;SDS011;64453;51.944;9.796;2022-10-26T03:58:26;3.90;;;3.53;;
75818;SDS011;64453;51.944;9.796;2022-10-26T04:00:53;3.33;;;3.03;;
75818;SDS011;64453;51.944;9.796;2022-10-26T04:03:19;6.60;;;3.67;;
75818;SDS011;64453;51.944;9.796;2022-10-26T04:05:46;3.80;;;3.17;;
75818;SDS011;64453;51.944;9.796;2022-10-26T04:08:13;3.50;;;3.20;;
75818;SDS011;64453;51.944;9.796;2022-10-26T04:10:40;5.43;;;3.20;;
75818;SDS011;64453;51.944;9.796;2022-10-26T04:13:09;4.23;;;3.33;;
75818;SDS011;64453;51.944;9.796;2022-10-26T04:15:36;3.50;;;3.20;;
75818;SDS011;64453;51.944;9.796;2022-10-26T04:18:03;5.43;;;4.00;;
75818;SDS011;64453;51.944;9.796;2022-10-26T04:20:30;6.13;;;4.10;;
75818;SDS011;64453;51.944;9.796;2022-10-26T04:22:58;3.63;;;2.93;;
75818;SDS011;64453;51.944;9.796;2022-10-26T04:25:26;4.47;;;4.07;;
75818;SDS011;64453;51.944;9.796;2022-10-26T04:27:53;3.40;;;3.10;;
75818;SDS011;64453;51.944;9.796;2022-10-26T04:30:21;6.60;;;3.37;;
75818;SDS011;64453;51.944;9.796;2022-10-26T04:32:49;3.30;;;3.03;;
75818;SDS011;64453;51.944;9.796;2022-10-26T04:35:16;3.47;;;3.03;;
75818;SDS011;64453;51.944;9.796;2022-10-26T04:37:43;10.83;;;4.40;;
75818;SDS011;64453;51.944;9.796;2022-10-26T04:40:10;6.47;;;3.40;;
75818;SDS011;64453;51.944;9.796;2022-10-26T04:42:40;5.00;;;3.33;;
75818;SDS011;64453;51.944;9.796;2022-10-26T04:45:08;8.97;;;3.40;;
75818;SDS011;64453;51.944;9.796;2022-10-26T04:47:37;4.20;;;3.03;;
75818;SDS011;64453;51.944;9.796;2022-10-26T04:50:04;4.20;;;3.60;;
75818;SDS011;64453;51.944;9.796;2022-10-26T04:52:32;14.90;;;3.60;;
75818;SDS011;64453;51.944;9.796;2022-10-26T04:54:58;4.00;;;3.60;;
75818;SDS011;64453;51.944;9.796;2022-10-26T04:57:25;3.90;;;3.10;;
75818;SDS011;64453;51.944;9.796;2022-10-26T04:59:52;7.23;;;3.90;;
75818;SDS011;64453;51.944;9.796;2022-10-26T05:02:19;3.80;;;3.50;;
75818;SDS011;64453;51.944;9.796;2022-10-26T05:04:48;5.40;;;4.10;;
75818;SDS011;64453;51.944;9.796;2022-10-26T05:07:14;3.97;;;3.57;;
75818;SDS011;64453;51.944;9.796;2022-10-26T05:09:41;4.97;;;3.83;;
75818;SDS011;64453;51.944;9.796;2022-10-26T05:12:08;6.13;;;3.87;;
75818;SDS011;64453;51.944;9.796;2022-10-26T05:14:38;4.17;;;3.77;;
75818;SDS011;64453;51.944;9.796;2022-10-26T05:17:05;5.07;;;4.30;;
75818;SDS011;64453;51.944;9.796;2022-10-26T05:19:31;5.33;;;3.97;;
75818;SDS011;64453;51.944;9.796;2022-10-26T05:22:00;6.27;;;4.17;;
75818;SDS011;64453;51.944;9.796;2022-10-26T05:24:26;6.07;;;4.10;;
75818;SDS011;64453;51.944;9.796;2022-10-26T05:26:53;4.77;;;4.37;;
75818;SDS011;64453;51.944;9.796;2022-10-26T05:29:20;3.80;;;3.50;;
75818;SDS011;64453;51.944;9.796;2022-10-26T05:31:47;16.47;;;4.60;;
75818;SDS011;64453;51.944;9.796;2022-10-26T05:34:13;3.97;;;3.10;;
75818;SDS011;64453;51.944;9.796;2022-10-26T05:36:40;4.73;;;4.27;;
75818;SDS011;64453;51.944;9.796;2022-10-26T05:39:09;5.13;;;4.60;;
75818;SDS011;64453;51.944;9.796;2022-10-26T05:41:35;4.63;;;4.10;;
75818;SDS011;64453;51.944;9.796;2022-10-26T05:44:02;4.37;;;3.70;;
75818;SDS011;64453;51.944;9.796;2022-10-26T05:46:29;4.20;;;3.80;;
75818;SDS011;64453;51.944;9.796;2022-10-26T05:48:56;5.07;;;4.67;;
75818;SDS011;64453;51.944;9.796;2022-10-26T05:51:25;5.23;;;4.73;;
75818;SDS011;64453;51.944;9.796;2022-10-26T05:53:52;5.43;;;4.23;;
75818;SDS011;64453;51.944;9.796;2022-10-26T05:56:32;5.40;;;4.30;;
75818;SDS011;64453;51.944;9.796;2022-10-26T05:59:00;3.87;;;3.53;;
75818;SDS011;64453;51.944;9.796;2022-10-26T06:01:29;4.00;;;3.60;;
75818;SDS011;64453;51.944;9.796;2022-10-26T06:04:11;4.60;;;3.90;;
75818;SDS011;64453;51.944;9.796;2022-10-26T06:06:45;4.50;;;4.10;;
75818;SDS011;64453;51.944;9.796;2022-10-26T06:09:14;9.40;;;4.30;;
75818;SDS011;64453;51.944;9.796;2022-10-26T06:11:43;3.60;;;3.23;;
75818;SDS011;64453;51.944;9.796;2022-10-26T06:14:11;6.63;;;4.20;;
75818;SDS011;64453;51.944;9.796;2022-10-26T06:16:41;4.07;;;3.77;;
75818;SDS011;64453;51.944;9.796;2022-10-26T06:19:20;3.70;;;3.40;;
75818;SDS011;64453;51.944;9.796;2022-10-26T06:21:59;4.10;;;3.43;;
75818;SDS011;64453;51.944;9.796;2022-10-26T06:24:35;4.20;;;3.90;;
75818;SDS011;64453;51.944;9.796;2022-10-26T06:27:12;6.00;;;4.10;;
75818;SDS011;64453;51.944;9.796;2022-10-26T06:29:48;4.07;;;3.67;;
75818;SDS011;64453;51.944;9.796;2022-10-26T06:32:22;6.00;;;4.43;;
75818;SDS011;64453;51.944;9.796;2022-10-26T06:34:50;5.60;;;4.00;;
75818;SDS011;64453;51.944;9.796;2022-10-26T06:37:21;5.07;;;4.03;;
75818;SDS011;64453;51.944;9.796;2022-10-26T06:39:49;5.27;;;4.20;;
75818;SDS011;64453;51.944;9.796;2022-10-26T06:42:18;4.63;;;3.80;;
75818;SDS011;64453;51.944;9.796;2022-10-26T06:44:46;5.77;;;3.90;;
75818;SDS011;64453;51.944;9.796;2022-10-26T06:47:14;5.00;;;4.10;;
75818;SDS011;64453;51.944;9.796;2022-10-26T06:49:52;7.27;;;4.53;;
75818;SDS011;64453;51.944;9.796;2022-10-26T06:52:26;3.90;;;3.60;;
75818;SDS011;64453;51.944;9.796;2022-10-26T06:54:58;5.20;;;4.70;;
75818;SDS011;64453;51.944;9.796;2022-10-26T06:57:27;4.73;;;4.37;;
75818;SDS011;64453;51.944;9.796;2022-10-26T06:59:59;6.67;;;4.50;;
75818;SDS011;64453;51.944;9.796;2022-10-26T07:02:29;6.73;;;4.30;;
75818;SDS011;64453;51.944;9.796;2022-10-26T07:04:55;14.63;;;4.50;;
75818;SDS011;64453;51.944;9.796;2022-10-26T07:07:23;5.70;;;4.43;;
75818;SDS011;64453;51.944;9.796;2022-10-26T07:09:51;6.13;;;4.07;;
75818;SDS011;64453;51.944;9.796;2022-10-26T07:12:18;4.77;;;4.47;;
75818;SDS011;64453;51.944;9.796;2022-10-26T07:14:46;4.83;;;3.70;;
75818;SDS011;64453;51.944;9.796;2022-10-26T07:17:13;5.20;;;4.70;;
75818;SDS011;64453;51.944;9.796;2022-10-26T07:19:41;4.83;;;4.37;;
75818;SDS011;64453;51.944;9.796;2022-10-26T07:22:08;7.87;;;4.73;;
75818;SDS011;64453;51.944;9.796;2022-10-26T07:24:35;4.87;;;4.37;;
75818;SDS011;64453;51.944;9.796;2022-10-26T07:27:02;5.33;;;4.83;;
75818;SDS011;64453;51.944;9.796;2022-10-26T07:29:29;7.33;;;5.70;;
75818;SDS011;64453;51.944;9.796;2022-10-26T07:31:57;4.80;;;4.30;;
75818;SDS011;64453;51.944;9.796;2022-10-26T07:34:24;9.00;;;5.13;;
75818;SDS011;64453;51.944;9.796;2022-10-26T07:36:51;7.70;;;5.37;;
75818;SDS011;64453;51.944;9.796;2022-10-26T07:39:18;5.30;;;4.60;;
75818;SDS011;64453;51.944;9.796;2022-10-26T07:41:44;6.60;;;5.20;;
75818;SDS011;64453;51.944;9.796;2022-10-26T07:44:11;5.27;;;4.80;;
75818;SDS011;64453;51.944;9.796;2022-10-26T07:46:38;6.23;;;4.63;;
75818;SDS011;64453;51.944;9.796;2022-10-26T07:49:06;4.77;;;4.30;;
75818;SDS011;64453;51.944;9.796;2022-10-26T07:51:33;7.07;;;5.20;;
75818;SDS011;64453;51.944;9.796;2022-10-26T07:54:00;4.50;;;4.10;;
75818;SDS011;64453;51.944;9.796;2022-10-26T07:56:26;5.00;;;4.50;;
75818;SDS011;64453;51.944;9.796;2022-10-26T07:58:54;4.90;;;4.30;;
75818;SDS011;64453;51.944;9.796;2022-10-26T08:01:22;8.10;;;4.50;;
75818;SDS011;64453;51.944;9.796;2022-10-26T08:03:50;9.70;;;4.93;;
75818;SDS011;64453;51.944;9.796;2022-10-26T08:06:18;7.13;;;4.90;;
75818;SDS011;64453;51.944;9.796;2022-10-26T08:08:45;6.13;;;3.80;;
75818;SDS011;64453;51.944;9.796;2022-10-26T08:11:12;4.07;;;3.33;;
75818;SDS011;64453;51.944;9.796;2022-10-26T08:13:39;4.13;;;3.67;;
75818;SDS011;64453;51.944;9.796;2022-10-26T08:16:06;4.30;;;3.90;;
75818;SDS011;64453;51.944;9.796;2022-10-26T08:18:35;5.03;;;4.30;;
75818;SDS011;64453;51.944;9.796;2022-10-26T08:21:03;8.17;;;4.30;;
75818;SDS011;64453;51.944;9.796;2022-10-26T08:23:32;6.63;;;4.40;;
75818;SDS011;64453;51.944;9.796;2022-10-26T08:25:59;7.60;;;3.30;;
75818;SDS011;64453;51.944;9.796;2022-10-26T08:28:26;3.47;;;3.07;;
75818;SDS011;64453;51.944;9.796;2022-10-26T08:30:53;3.70;;;3.40;;
75818;SDS011;64453;51.944;9.796;2022-10-26T08:33:21;6.60;;;4.60;;
75818;SDS011;64453;51.944;9.796;2022-10-26T08:35:48;4.70;;;4.03;;
75818;SDS011;64453;51.944;9.796;2022-10-26T08:38:19;6.27;;;3.50;;
75818;SDS011;64453;51.944;9.796;2022-10-26T08:40:47;5.43;;;3.90;;
75818;SDS011;64453;51.944;9.796;2022-10-26T08:43:15;7.13;;;3.93;;
75818;SDS011;64453;51.944;9.796;2022-10-26T08:45:48;6.70;;;3.90;;
75818;SDS011;64453;51.944;9.796;2022-10-26T08:48:18;3.90;;;3.27;;
75818;SDS011;64453;51.944;9.796;2022-10-26T08:50:50;4.37;;;4.00;;
75818;SDS011;64453;51.944;9.796;2022-10-26T08:53:20;3.00;;;2.70;;
75818;SDS011;64453;51.944;9.796;2022-10-26T08:55:53;4.83;;;2.90;;
75818;SDS011;64453;51.944;9.796;2022-10-26T08:58:25;3.00;;;2.80;;
75818;SDS011;64453;51.944;9.796;2022-10-26T09:00:54;4.60;;;3.60;;
75818;SDS011;64453;51.944;9.796;2022-10-26T09:03:21;3.87;;;3.57;;
75818;SDS011;64453;51.944;9.796;2022-10-26T09:05:54;3.13;;;2.93;;
75818;SDS011;64453;51.944;9.796;2022-10-26T09:08:35;6.37;;;3.13;;
75818;SDS011;64453;51.944;9.796;2022-10-26T09:11:10;3.50;;;3.10;;
75818;SDS011;64453;51.944;9.796;2022-10-26T09:13:46;5.37;;;3.17;;
75818;SDS011;64453;51.944;9.796;2022-10-26T09:16:22;3.43;;;2.60;;
75818;SDS011;64453;51.944;9.796;2022-10-26T09:18:58;4.13;;;2.37;;
75818;SDS011;64453;51.944;9.796;2022-10-26T09:21:46;3.07;;;2.83;;
75818;SDS011;64453;51.944;9.796;2022-10-26T09:24:20;8.47;;;2.40;;
75818;SDS011;64453;51.944;9.796;2022-10-26T09:26:56;3.13;;;2.60;;
75818;SDS011;64453;51.944;9.796;2022-10-26T09:29:28;3.27;;;2.13;;
75818;SDS011;64453;51.944;9.796;2022-10-26T09:31:59;4.30;;;2.30;;
75818;SDS011;64453;51.944;9.796;2022-10-26T09:34:30;2.60;;;2.00;;
75818;SDS011;64453;51.944;9.796;2022-10-26T09:37:04;2.63;;;2.20;;
75818;SDS011;64453;51.944;9.796;2022-10-26T09:39:41;2.20;;;2.00;;
75818;SDS011;64453;51.944;9.796;2022-10-26T09:42:19;4.00;;;3.60;;
75818;SDS011;64453;51.944;9.796;2022-10-26T09:44:52;2.93;;;2.47;;
75818;SDS011;64453;51.944;9.796;2022-10-26T09:47:26;2.60;;;2.00;;
75818;SDS011;64453;51.944;9.796;2022-10-26T09:49:59;8.30;;;2.07;;
75818;SDS011;64453;51.944;9.796;2022-10-26T09:52:31;3.83;;;1.90;;
75818;SDS011;64453;51.944;9.796;2022-10-26T09:54:58;1.83;;;1.70;;
75818;SDS011;64453;51.944;9.796;2022-10-26T09:57:27;2.80;;;2.10;;
75818;SDS011;64453;51.944;9.796;2022-10-26T09:59:54;2.07;;;1.93;;
75818;SDS011;64453;51.944;9.796;2022-10-26T10:02:34;2.37;;;1.73;;
75818;SDS011;64453;51.944;9.796;2022-10-26T10:05:15;4.23;;;2.23;;
75818;SDS011;64453;51.944;9.796;2022-10-26T10:07:50;1.80;;;1.60;;
75818;SDS011;64453;51.944;9.796;2022-10-26T10:10:17;1.67;;;1.57;;
75818;SDS011;64453;51.944;9.796;2022-10-26T10:12:47;2.30;;;1.67;;
75818;SDS011;64453;51.944;9.796;2022-10-26T10:15:17;2.77;;;1.70;;
75818;SDS011;64453;51.944;9.796;2022-10-26T10:17:46;1.90;;;1.80;;
75818;SDS011;64453;51.944;9.796;2022-10-26T10:20:17;4.77;;;1.83;;
75818;SDS011;64453;51.944;9.796;2022-10-26T10:22:55;4.10;;;2.13;;
75818;SDS011;64453;51.944;9.796;2022-10-26T10:25:31;2.60;;;2.03;;
75818;SDS011;64453;51.944;9.796;2022-10-26T10:28:01;2.03;;;1.80;;
75818;SDS011;64453;51.944;9.796;2022-10-26T10:30:29;2.50;;;1.80;;
75818;SDS011;64453;51.944;9.796;2022-10-26T10:33:05;5.20;;;1.80;;
75818;SDS011;64453;51.944;9.796;2022-10-26T10:35:37;1.63;;;1.53;;
75818;SDS011;64453;51.944;9.796;2022-10-26T10:38:14;3.87;;;1.67;;
75818;SDS011;64453;51.944;9.796;2022-10-26T10:40:48;2.33;;;1.50;;
75818;SDS011;64453;51.944;9.796;2022-10-26T10:43:17;2.83;;;1.63;;
75818;SDS011;64453;51.944;9.796;2022-10-26T10:45:45;2.20;;;1.60;;
75818;SDS011;64453;51.944;9.796;2022-10-26T10:48:14;2.17;;;1.70;;
75818;SDS011;64453;51.944;9.796;2022-10-26T10:50:50;3.90;;;1.47;;
75818;SDS011;64453;51.944;9.796;2022-10-26T10:53:20;1.63;;;1.53;;
75818;SDS011;64453;51.944;9.796;2022-10-26T10:55:53;1.70;;;1.30;;
75818;SDS011;64453;51.944;9.796;2022-10-26T10:58:48;2.00;;;1.80;;
75818;SDS011;64453;51.944;9.796;2022-10-26T11:01:22;1.43;;;1.33;;
75818;SDS011;64453;51.944;9.796;2022-10-26T11:03:59;4.53;;;1.60;;
75818;SDS011;64453;51.944;9.796;2022-10-26T11:06:46;2.43;;;1.77;;
75818;SDS011;64453;51.944;9.796;2022-10-26T11:09:15;1.70;;;1.60;;
75818;SDS011;64453;51.944;9.796;2022-10-26T11:11:45;5.50;;;2.00;;
75818;SDS011;64453;51.944;9.796;2022-10-26T11:14:18;1.60;;;1.50;;
75818;SDS011;64453;51.944;9.796;2022-10-26T11:16:50;4.43;;;1.37;;
75818;SDS011;64453;51.944;9.796;2022-10-26T11:19:22;1.43;;;1.23;;
75818;SDS011;64453;51.944;9.796;2022-10-26T11:21:53;4.20;;;1.80;;
75818;SDS011;64453;51.944;9.796;2022-10-26T11:24:21;2.50;;;1.30;;
75818;SDS011;64453;51.944;9.796;2022-10-26T11:26:53;1.87;;;1.50;;
75818;SDS011;64453;51.944;9.796;2022-10-26T11:29:26;3.67;;;1.50;;
75818;SDS011;64453;51.944;9.796;2022-10-26T11:31:59;2.30;;;1.60;;
75818;SDS011;64453;51.944;9.796;2022-10-26T11:34:33;1.87;;;1.40;;
75818;SDS011;64453;51.944;9.796;2022-10-26T11:37:07;1.53;;;1.13;;
75818;SDS011;64453;51.944;9.796;2022-10-26T11:39:42;8.50;;;1.53;;
75818;SDS011;64453;51.944;9.796;2022-10-26T11:42:21;2.07;;;1.80;;
75818;SDS011;64453;51.944;9.796;2022-10-26T11:44:58;3.00;;;1.90;;
75818;SDS011;64453;51.944;9.796;2022-10-26T11:47:31;1.10;;;1.10;;
75818;SDS011;64453;51.944;9.796;2022-10-26T11:50:04;2.13;;;1.20;;
75818;SDS011;64453;51.944;9.796;2022-10-26T11:52:38;1.60;;;1.50;;
75818;SDS011;64453;51.944;9.796;2022-10-26T11:55:10;1.57;;;1.27;;
75818;SDS011;64453;51.944;9.796;2022-10-26T11:57:37;3.27;;;1.27;;
75818;SDS011;64453;51.944;9.796;2022-10-26T12:00:12;3.43;;;1.53;;
75818;SDS011;64453;51.944;9.796;2022-10-26T12:02:41;1.70;;;1.60;;
75818;SDS011;64453;51.944;9.796;2022-10-26T12:05:16;3.37;;;1.70;;
75818;SDS011;64453;51.944;9.796;2022-10-26T12:07:47;1.10;;;1.00;;
75818;SDS011;64453;51.944;9.796;2022-10-26T12:10:22;1.53;;;1.43;;
75818;SDS011;64453;51.944;9.796;2022-10-26T12:12:53;1.53;;;1.43;;
75818;SDS011;64453;51.944;9.796;2022-10-26T12:15:26;3.70;;;2.00;;
75818;SDS011;64453;51.944;9.796;2022-10-26T12:18:00;1.80;;;1.70;;
75818;SDS011;64453;51.944;9.796;2022-10-26T12:20:41;4.40;;;1.30;;
75818;SDS011;64453;51.944;9.796;2022-10-26T12:23:21;1.70;;;1.60;;
75818;SDS011;64453;51.944;9.796;2022-10-26T12:25:48;4.40;;;1.43;;
75818;SDS011;64453;51.944;9.796;2022-10-26T12:28:37;2.20;;;1.73;;
75818;SDS011;64453;51.944;9.796;2022-10-26T12:34:10;3.20;;;1.70;;
75818;SDS011;64453;51.944;9.796;2022-10-26T12:36:48;1.57;;;1.40;;
75818;SDS011;64453;51.944;9.796;2022-10-26T12:39:35;4.07;;;1.67;;
75818;SDS011;64453;51.944;9.796;2022-10-26T12:42:09;5.10;;;1.63;;
75818;SDS011;64453;51.944;9.796;2022-10-26T12:50:30;3.17;;;1.53;;
75818;SDS011;64453;51.944;9.796;2022-10-26T12:52:57;4.40;;;1.70;;
75818;SDS011;64453;51.944;9.796;2022-10-26T12:55:36;3.40;;;1.73;;
75818;SDS011;64453;51.944;9.796;2022-10-26T13:04:51;3.13;;;1.50;;
75818;SDS011;64453;51.944;9.796;2022-10-26T13:07:38;2.00;;;1.80;;
75818;SDS011;64453;51.944;9.796;2022-10-26T13:10:16;5.40;;;1.30;;
75818;SDS011;64453;51.944;9.796;2022-10-26T13:12:46;1.57;;;1.47;;
75818;SDS011;64453;51.944;9.796;2022-10-26T13:15:19;2.73;;;1.50;;
75818;SDS011;64453;51.944;9.796;2022-10-26T13:17:51;2.13;;;1.50;;
75818;SDS011;64453;51.944;9.796;2022-10-26T13:20:35;2.70;;;1.50;;
75818;SDS011;64453;51.944;9.796;2022-10-26T13:23:02;2.80;;;1.60;;
75818;SDS011;64453;51.944;9.796;2022-10-26T13:25:41;4.67;;;1.53;;
75818;SDS011;64453;51.944;9.796;2022-10-26T13:28:34;2.60;;;1.60;;
75818;SDS011;64453;51.944;9.796;2022-10-26T13:31:10;1.50;;;1.30;;
75818;SDS011;64453;51.944;9.796;2022-10-26T13:33:42;1.70;;;1.50;;
75818;SDS011;64453;51.944;9.796;2022-10-26T13:36:17;3.20;;;1.70;;
75818;SDS011;64453;51.944;9.796;2022-10-26T13:38:51;3.43;;;1.43;;
75818;SDS011;64453;51.944;9.796;2022-10-26T13:41:21;3.00;;;1.43;;
75818;SDS011;64453;51.944;9.796;2022-10-26T13:43:52;3.50;;;1.43;;
75818;SDS011;64453;51.944;9.796;2022-10-26T13:46:26;2.03;;;1.83;;
75818;SDS011;64453;51.944;9.796;2022-10-26T13:48:57;3.63;;;1.60;;
75818;SDS011;64453;51.944;9.796;2022-10-26T13:51:33;4.30;;;3.40;;
75818;SDS011;64453;51.944;9.796;2022-10-26T13:54:06;7.60;;;3.10;;
75818;SDS011;64453;51.944;9.796;2022-10-26T13:56:47;2.30;;;1.43;;
75818;SDS011;64453;51.944;9.796;2022-10-26T13:59:31;2.93;;;1.60;;
75818;SDS011;64453;51.944;9.796;2022-10-26T14:02:06;3.33;;;1.80;;
75818;SDS011;64453;51.944;9.796;2022-10-26T14:04:40;3.57;;;1.40;;
75818;SDS011;64453;51.944;9.796;2022-10-26T14:07:14;2.67;;;1.30;;
75818;SDS011;64453;51.944;9.796;2022-10-26T14:09:50;1.33;;;1.23;;
75818;SDS011;64453;51.944;9.796;2022-10-26T14:12:18;3.70;;;1.43;;
75818;SDS011;64453;51.944;9.796;2022-10-26T14:14:46;1.10;;;1.00;;
75818;SDS011;64453;51.944;9.796;2022-10-26T14:17:15;2.20;;;1.57;;
75818;SDS011;64453;51.944;9.796;2022-10-26T14:19:44;2.87;;;1.20;;
75818;SDS011;64453;51.944;9.796;2022-10-26T14:22:17;1.80;;;1.70;;
75818;SDS011;64453;51.944;9.796;2022-10-26T14:24:49;2.43;;;1.37;;
75818;SDS011;64453;51.944;9.796;2022-10-26T14:27:18;1.50;;;1.40;;
75818;SDS011;64453;51.944;9.796;2022-10-26T14:29:46;4.90;;;1.70;;
75818;SDS011;64453;51.944;9.796;2022-10-26T14:32:20;1.47;;;1.37;;
75818;SDS011;64453;51.944;9.796;2022-10-26T14:34:52;1.73;;;1.63;;
75818;SDS011;64453;51.944;9.796;2022-10-26T14:37:25;2.43;;;1.50;;
75818;SDS011;64453;51.944;9.796;2022-10-26T14:40:02;2.07;;;1.57;;
75818;SDS011;64453;51.944;9.796;2022-10-26T14:42:32;1.67;;;1.37;;
75818;SDS011;64453;51.944;9.796;2022-10-26T14:45:03;1.90;;;1.80;;
75818;SDS011;64453;51.944;9.796;2022-10-26T14:47:31;6.80;;;1.20;;
75818;SDS011;64453;51.944;9.796;2022-10-26T14:50:00;1.60;;;1.20;;
75818;SDS011;64453;51.944;9.796;2022-10-26T14:52:29;7.53;;;1.60;;
75818;SDS011;64453;51.944;9.796;2022-10-26T14:54:58;3.20;;;1.50;;
75818;SDS011;64453;51.944;9.796;2022-10-26T14:57:35;2.60;;;1.30;;
75818;SDS011;64453;51.944;9.796;2022-10-26T15:00:09;1.50;;;1.40;;
75818;SDS011;64453;51.944;9.796;2022-10-26T15:02:40;3.00;;;1.40;;
75818;SDS011;64453;51.944;9.796;2022-10-26T15:05:18;3.27;;;1.00;;
75818;SDS011;64453;51.944;9.796;2022-10-26T15:07:52;2.00;;;1.47;;
75818;SDS011;64453;51.944;9.796;2022-10-26T15:13:23;2.33;;;1.47;;
75818;SDS011;64453;51.944;9.796;2022-10-26T15:15:53;1.20;;;1.20;;
75818;SDS011;64453;51.944;9.796;2022-10-26T15:18:23;5.40;;;1.37;;
75818;SDS011;64453;51.944;9.796;2022-10-26T15:20:52;5.47;;;1.90;;
75818;SDS011;64453;51.944;9.796;2022-10-26T15:23:21;1.00;;;1.00;;
75818;SDS011;64453;51.944;9.796;2022-10-26T15:25:49;2.30;;;1.70;;
75818;SDS011;64453;51.944;9.796;2022-10-26T15:28:20;4.07;;;2.10;;
75818;SDS011;64453;51.944;9.796;2022-10-26T15:31:01;3.10;;;2.23;;
75818;SDS011;64453;51.944;9.796;2022-10-26T15:33:30;2.93;;;2.13;;